Time;durP1;ratioP1;P1;durP2;ratioP2;P2;SDS_P1;SDS_P2;PMS_P1;PMS_P2;Temp;Humidity;BMP_temperature;BMP_pressure;BME280_temperature;BME280_humidity;BME280_pressure;Samples;Min_cycle;Max_cycle;Signal;HPM_P1;HPM_P2
2022/01/11 00:01:18;;;;;;;59.83;26.27;;;;;;;;;;5069828;28;20056;-82
2022/01/11 00:03:44;;;;;;;67.18;26.83;;;;;;;;;;5053751;28;20049;-82
2022/01/11 00:09:00;;;;;;;62.75;25.88;;;;;;;;;;5072698;28;20041;-76
2022/01/11 00:11:26;;;;;;;65.63;26.63;;;;;;;;;;5070420;28;20047;-77
2022/01/11 00:13:53;;;;;;;65.45;26.77;;;;;;;;;;5069932;28;20040;-77
2022/01/11 00:16:19;;;;;;;61.83;26.15;;;;;;;;;;5069766;28;20076;-77
2022/01/11 00:18:45;;;;;;;67.30;27.30;;;;;;;;;;5104833;28;20041;-76
2022/01/11 00:21:11;;;;;;;58.95;24.27;;;;;;;;;;5070378;28;20040;-82
2022/01/11 00:26:04;;;;;;;62.20;25.52;;;;;;;;;;5070523;28;20052;-77
2022/01/11 00:28:30;;;;;;;64.20;25.58;;;;;;;;;;5070410;28;20083;-77
2022/01/11 00:30:56;;;;;;;64.00;25.83;;;;;;;;;;5070302;28;20052;-82
2022/01/11 00:33:31;;;;;;;62.70;25.50;;;;;;;;;;5070621;28;20484;-82
2022/01/11 00:35:59;;;;;;;61.15;25.33;;;;;;;;;;5070279;28;20457;-82
2022/01/11 00:38:31;;;;;;;65.97;24.65;;;;;;;;;;5053272;28;20159;-82
2022/01/11 00:40:59;;;;;;;70.07;25.30;;;;;;;;;;5070999;28;20048;-82
2022/01/11 00:43:26;;;;;;;65.65;24.95;;;;;;;;;;5071172;28;20052;-82
2022/01/11 00:45:53;;;;;;;72.05;26.20;;;;;;;;;;5071248;28;20095;-82
2022/01/11 00:48:20;;;;;;;70.15;25.90;;;;;;;;;;5070243;28;20524;-77
2022/01/11 00:50:47;;;;;;;62.55;24.73;;;;;;;;;;5070236;28;20040;-76
2022/01/11 00:53:13;;;;;;;72.13;26.25;;;;;;;;;;5069788;28;20056;-77
2022/01/11 00:55:39;;;;;;;66.03;25.05;;;;;;;;;;5054063;28;20050;-78
2022/01/11 00:58:06;;;;;;;73.07;27.02;;;;;;;;;;5053379;28;20209;-77
2022/01/11 01:00:33;;;;;;;66.15;24.63;;;;;;;;;;5070614;28;20040;-76
2022/01/11 01:02:59;;;;;;;60.70;24.35;;;;;;;;;;5070012;28;20044;-82
2022/01/11 01:05:26;;;;;;;62.72;24.15;;;;;;;;;;5070004;28;20610;-82
2022/01/11 01:07:52;;;;;;;62.65;25.33;;;;;;;;;;5070533;28;20068;-82
2022/01/11 01:10:26;;;;;;;61.55;23.50;;;;;;;;;;5069704;28;20391;-81
2022/01/11 01:12:52;;;;;;;59.35;23.75;;;;;;;;;;5069996;28;20492;-81
2022/01/11 01:15:20;;;;;;;59.78;23.88;;;;;;;;;;5068982;28;20163;-77
2022/01/11 01:17:46;;;;;;;58.38;22.75;;;;;;;;;;5053405;28;20566;-78
2022/01/11 01:20:12;;;;;;;67.45;24.05;;;;;;;;;;5065971;28;20467;-77
2022/01/11 01:22:39;;;;;;;53.30;22.40;;;;;;;;;;5082756;28;20041;-77
2022/01/11 01:25:05;;;;;;;54.72;23.67;;;;;;;;;;5050951;28;20043;-78
2022/01/11 01:27:31;;;;;;;54.28;22.60;;;;;;;;;;5049288;28;20489;-77
2022/01/11 01:29:57;;;;;;;46.67;20.17;;;;;;;;;;5049383;28;20056;-78
2022/01/11 01:32:24;;;;;;;51.25;22.40;;;;;;;;;;5084144;28;20044;-82
2022/01/11 01:34:50;;;;;;;48.83;21.38;;;;;;;;;;5071303;28;20062;-82
2022/01/11 01:37:17;;;;;;;53.70;22.20;;;;;;;;;;5069627;28;20048;-82
2022/01/11 01:39:43;;;;;;;54.42;21.77;;;;;;;;;;5053368;28;20093;-82
2022/01/11 01:42:11;;;;;;;51.97;21.40;;;;;;;;;;5069265;28;20041;-82
2022/01/11 01:44:39;;;;;;;54.38;22.42;;;;;;;;;;5069682;28;20045;-82
2022/01/11 01:47:06;;;;;;;51.17;20.40;;;;;;;;;;5071114;28;20090;-82
2022/01/11 01:49:34;;;;;;;54.17;21.30;;;;;;;;;;5069405;28;20044;-81
2022/01/11 01:52:01;;;;;;;53.75;21.77;;;;;;;;;;5070162;28;20036;-82
2022/01/11 01:54:27;;;;;;;51.55;19.98;;;;;;;;;;5069351;28;20132;-82
2022/01/11 01:56:54;;;;;;;54.97;22.48;;;;;;;;;;5070330;28;20032;-77
2022/01/11 01:59:20;;;;;;;64.05;23.15;;;;;;;;;;5068696;28;20044;-77
2022/01/11 02:01:48;;;;;;;59.67;22.35;;;;;;;;;;5068780;28;20072;-77
2022/01/11 02:04:18;;;;;;;53.60;20.73;;;;;;;;;;5068678;28;20400;-78
2022/01/11 02:06:45;;;;;;;62.30;22.73;;;;;;;;;;5070480;28;20116;-81
2022/01/11 02:09:12;;;;;;;62.05;22.73;;;;;;;;;;5052189;28;20054;-80
2022/01/11 02:11:39;;;;;;;65.15;24.35;;;;;;;;;;5069077;28;20045;-78
2022/01/11 02:14:05;;;;;;;67.38;24.25;;;;;;;;;;5068704;28;20048;-78
2022/01/11 02:16:31;;;;;;;68.25;23.20;;;;;;;;;;5068250;28;20036;-78
2022/01/11 02:18:57;;;;;;;68.35;24.40;;;;;;;;;;5068576;28;20032;-78
2022/01/11 02:21:23;;;;;;;67.30;23.65;;;;;;;;;;5067943;28;20083;-78
2022/01/11 02:23:50;;;;;;;76.30;25.98;;;;;;;;;;5051871;28;20052;-78
2022/01/11 02:26:16;;;;;;;71.80;25.00;;;;;;;;;;5068165;28;20055;-78
2022/01/11 02:28:43;;;;;;;73.18;25.42;;;;;;;;;;5067880;28;20045;-78
2022/01/11 02:31:12;;;;;;;76.05;25.15;;;;;;;;;;5051463;28;20507;-78
2022/01/11 02:33:40;;;;;;;68.68;24.13;;;;;;;;;;5068638;28;20496;-78
2022/01/11 02:36:26;;;;;;;74.30;24.65;;;;;;;;;;5067988;28;20048;-78
2022/01/11 02:38:53;;;;;;;72.40;25.50;;;;;;;;;;5071258;28;20047;-82
2022/01/11 02:41:19;;;;;;;66.43;23.55;;;;;;;;;;5072849;28;20465;-78
2022/01/11 02:43:49;;;;;;;84.20;25.85;;;;;;;;;;5072709;28;20045;-78
2022/01/11 02:46:16;;;;;;;83.32;26.13;;;;;;;;;;5055569;28;20416;-82
2022/01/11 02:48:43;;;;;;;71.25;25.58;;;;;;;;;;5073881;28;20115;-81
2022/01/11 02:51:09;;;;;;;76.40;25.85;;;;;;;;;;5073712;28;20052;-82
2022/01/11 02:53:39;;;;;;;83.88;26.15;;;;;;;;;;5072424;28;20049;-82
2022/01/11 02:56:05;;;;;;;71.13;25.25;;;;;;;;;;5072922;28;20044;-82
2022/01/11 02:58:31;;;;;;;72.95;25.60;;;;;;;;;;5073059;28;20032;-82
2022/01/11 03:00:57;;;;;;;77.05;25.38;;;;;;;;;;5053212;28;20051;-81
2022/01/11 03:03:24;;;;;;;82.30;25.02;;;;;;;;;;5071906;28;20051;-81
2022/01/11 03:05:55;;;;;;;69.97;25.30;;;;;;;;;;5072336;28;20041;-81
2022/01/11 03:08:22;;;;;;;63.20;23.15;;;;;;;;;;5072564;28;20052;-81
2022/01/11 03:10:49;;;;;;;66.22;22.52;;;;;;;;;;5074210;28;20051;-81
2022/01/11 03:13:18;;;;;;;69.07;23.75;;;;;;;;;;5072076;28;20040;-82
2022/01/11 03:15:45;;;;;;;75.68;25.15;;;;;;;;;;5072711;28;20037;-81
2022/01/11 03:18:12;;;;;;;68.20;22.73;;;;;;;;;;5074006;28;20072;-81
2022/01/11 03:20:38;;;;;;;76.93;26.17;;;;;;;;;;5073630;28;20044;-82
2022/01/11 03:23:04;;;;;;;70.72;24.77;;;;;;;;;;5072275;28;20040;-79
2022/01/11 03:25:31;;;;;;;68.50;23.98;;;;;;;;;;5071810;28;20057;-82
2022/01/11 03:27:57;;;;;;;72.50;24.30;;;;;;;;;;5072501;28;20052;-81
2022/01/11 03:30:23;;;;;;;78.32;24.63;;;;;;;;;;5072022;28;20147;-82
2022/01/11 03:32:50;;;;;;;78.30;24.25;;;;;;;;;;5071554;28;20110;-81
2022/01/11 03:35:17;;;;;;;78.40;24.90;;;;;;;;;;5072395;28;20507;-81
2022/01/11 03:37:44;;;;;;;78.65;24.98;;;;;;;;;;5072094;28;20114;-81
2022/01/11 03:40:12;;;;;;;65.15;24.15;;;;;;;;;;5073224;28;20502;-82
2022/01/11 03:42:38;;;;;;;74.70;25.10;;;;;;;;;;5073143;28;20396;-81
2022/01/11 03:45:06;;;;;;;78.05;25.23;;;;;;;;;;5072250;28;20079;-81
2022/01/11 03:47:32;;;;;;;82.25;24.98;;;;;;;;;;5071067;28;20480;-81
2022/01/11 03:49:58;;;;;;;72.95;24.02;;;;;;;;;;5071671;28;20072;-81
2022/01/11 03:52:25;;;;;;;69.45;24.75;;;;;;;;;;5071615;28;20556;-79
2022/01/11 03:57:20;;;;;;;72.40;24.13;;;;;;;;;;5070923;28;20113;-81
2022/01/11 03:59:46;;;;;;;69.40;23.50;;;;;;;;;;5071267;28;20094;-77
2022/01/11 04:02:12;;;;;;;81.72;25.25;;;;;;;;;;5071335;28;20041;-81
2022/01/11 04:04:38;;;;;;;70.93;23.80;;;;;;;;;;5072406;28;20041;-80
2022/01/11 04:07:04;;;;;;;67.15;23.38;;;;;;;;;;5055630;28;20369;-81
2022/01/11 04:09:30;;;;;;;75.70;23.80;;;;;;;;;;5055893;28;20481;-78
2022/01/11 04:11:57;;;;;;;80.47;24.55;;;;;;;;;;5072396;28;20507;-77
2022/01/11 04:14:25;;;;;;;69.68;24.67;;;;;;;;;;5070915;28;20040;-79
2022/01/11 04:16:52;;;;;;;75.53;23.60;;;;;;;;;;5071357;28;20472;-78
2022/01/11 04:19:18;;;;;;;75.30;23.70;;;;;;;;;;5071114;28;20032;-78
2022/01/11 04:21:44;;;;;;;72.35;22.88;;;;;;;;;;5071267;28;20565;-78
2022/01/11 04:24:12;;;;;;;70.20;23.38;;;;;;;;;;5071306;28;20094;-79
2022/01/11 04:26:38;;;;;;;66.07;19.63;;;;;;;;;;5070723;28;20079;-78
2022/01/11 04:29:04;;;;;;;64.70;20.75;;;;;;;;;;5071042;28;20089;-77
2022/01/11 04:31:31;;;;;;;59.55;21.70;;;;;;;;;;5054372;28;20045;-81
2022/01/11 04:33:57;;;;;;;74.10;24.30;;;;;;;;;;5087909;28;20045;-80
2022/01/11 04:36:23;;;;;;;61.47;21.13;;;;;;;;;;5070849;28;20058;-80
2022/01/11 04:38:49;;;;;;;66.97;21.45;;;;;;;;;;5070936;28;20049;-80
2022/01/11 04:41:15;;;;;;;63.13;21.20;;;;;;;;;;5070845;28;20560;-81
2022/01/11 04:43:42;;;;;;;65.30;21.77;;;;;;;;;;5071105;28;20044;-81
2022/01/11 04:46:08;;;;;;;57.97;19.92;;;;;;;;;;5071161;28;20074;-78
2022/01/11 04:48:34;;;;;;;57.25;20.55;;;;;;;;;;5054343;28;20093;-81
2022/01/11 04:51:01;;;;;;;55.80;20.70;;;;;;;;;;5072594;28;20052;-82
2022/01/11 04:53:27;;;;;;;57.90;20.73;;;;;;;;;;5070030;28;20037;-80
2022/01/11 04:55:54;;;;;;;59.58;21.20;;;;;;;;;;5053629;28;20070;-81
2022/01/11 04:58:20;;;;;;;58.60;20.67;;;;;;;;;;5069989;28;20067;-82
2022/01/11 05:00:46;;;;;;;52.88;19.85;;;;;;;;;;5067424;28;20469;-79
2022/01/11 05:03:12;;;;;;;53.30;19.70;;;;;;;;;;5095639;28;20033;-81
2022/01/11 05:05:39;;;;;;;55.65;19.60;;;;;;;;;;5071056;28;20125;-81
2022/01/11 05:08:05;;;;;;;54.42;19.25;;;;;;;;;;5070129;28;20052;-82
2022/01/11 05:10:32;;;;;;;57.38;19.90;;;;;;;;;;5071185;28;20400;-81
2022/01/11 05:12:58;;;;;;;54.80;19.52;;;;;;;;;;5053941;28;20044;-81
2022/01/11 05:15:28;;;;;;;50.55;17.33;;;;;;;;;;5053544;28;20047;-79
2022/01/11 05:17:55;;;;;;;49.17;18.67;;;;;;;;;;5069572;28;20488;-79
2022/01/11 05:20:21;;;;;;;48.10;18.23;;;;;;;;;;5069104;28;20090;-78
2022/01/11 05:22:47;;;;;;;44.50;18.15;;;;;;;;;;5069719;28;20041;-79
2022/01/11 05:25:15;;;;;;;47.17;17.90;;;;;;;;;;5068723;28;20074;-79
2022/01/11 05:27:41;;;;;;;49.00;17.85;;;;;;;;;;5069320;28;20044;-80
2022/01/11 05:30:08;;;;;;;52.38;18.17;;;;;;;;;;5052764;28;20173;-79
2022/01/11 05:32:35;;;;;;;47.08;16.95;;;;;;;;;;5070525;28;20043;-79
2022/01/11 05:35:03;;;;;;;47.22;16.23;;;;;;;;;;5068974;28;20049;-79
2022/01/11 05:37:29;;;;;;;44.10;17.60;;;;;;;;;;5069080;28;20060;-81
2022/01/11 05:39:55;;;;;;;45.38;17.98;;;;;;;;;;5052910;28;20066;-81
2022/01/11 05:42:23;;;;;;;45.75;17.40;;;;;;;;;;5053105;28;20045;-81
2022/01/11 05:44:49;;;;;;;43.85;16.88;;;;;;;;;;5070026;28;20399;-81
2022/01/11 05:47:15;;;;;;;48.95;18.95;;;;;;;;;;5069313;28;20045;-81
2022/01/11 05:49:41;;;;;;;41.38;16.50;;;;;;;;;;5069887;28;20040;-81
2022/01/11 05:52:07;;;;;;;41.45;16.35;;;;;;;;;;5036866;28;20154;-79
2022/01/11 05:54:33;;;;;;;45.97;17.92;;;;;;;;;;5069326;28;20565;-79
2022/01/11 05:56:59;;;;;;;45.65;17.05;;;;;;;;;;5068917;28;20040;-79
2022/01/11 05:59:25;;;;;;;49.47;18.02;;;;;;;;;;5069449;28;20048;-81
2022/01/11 06:01:51;;;;;;;44.97;17.42;;;;;;;;;;5069745;28;20033;-81
2022/01/11 06:04:17;;;;;;;46.22;17.08;;;;;;;;;;5068988;28;20119;-79
2022/01/11 06:06:44;;;;;;;48.47;16.65;;;;;;;;;;5068888;28;20461;-79
2022/01/11 06:09:10;;;;;;;45.90;17.67;;;;;;;;;;5068864;28;20113;-79
2022/01/11 06:11:36;;;;;;;54.65;19.52;;;;;;;;;;5068343;28;20076;-78
2022/01/11 06:14:02;;;;;;;49.05;17.33;;;;;;;;;;5051768;28;20389;-78
2022/01/11 06:16:28;;;;;;;49.10;17.48;;;;;;;;;;5069281;28;20120;-81
2022/01/11 06:18:54;;;;;;;49.95;18.80;;;;;;;;;;5069243;28;20098;-79
2022/01/11 06:21:20;;;;;;;46.92;17.33;;;;;;;;;;5069362;28;20448;-79
2022/01/11 06:23:47;;;;;;;46.30;16.92;;;;;;;;;;5069180;28;20546;-78
2022/01/11 06:26:14;;;;;;;51.83;17.83;;;;;;;;;;5054081;28;20040;-81
2022/01/11 06:28:40;;;;;;;55.28;18.23;;;;;;;;;;5053230;28;20395;-79
2022/01/11 06:31:07;;;;;;;49.38;18.05;;;;;;;;;;5068507;28;20044;-79
2022/01/11 06:33:33;;;;;;;53.25;18.08;;;;;;;;;;5068637;28;20049;-79
2022/01/11 06:35:59;;;;;;;50.30;18.27;;;;;;;;;;5068496;28;20047;-79
2022/01/11 06:38:28;;;;;;;51.28;17.75;;;;;;;;;;5068134;28;20099;-81
2022/01/11 06:40:54;;;;;;;44.85;17.73;;;;;;;;;;5068958;28;20036;-79
2022/01/11 06:43:20;;;;;;;51.05;17.80;;;;;;;;;;5068028;28;20055;-79
2022/01/11 06:45:46;;;;;;;46.97;16.83;;;;;;;;;;5068789;28;20044;-79
2022/01/11 06:48:12;;;;;;;50.70;17.70;;;;;;;;;;5068501;28;20052;-79
2022/01/11 06:50:38;;;;;;;49.83;18.10;;;;;;;;;;5068220;28;20050;-79
2022/01/11 06:53:04;;;;;;;58.78;19.92;;;;;;;;;;5068691;28;20048;-81
2022/01/11 06:55:30;;;;;;;54.83;18.75;;;;;;;;;;5069298;28;20033;-79
2022/01/11 06:57:57;;;;;;;53.83;18.25;;;;;;;;;;5068237;28;20047;-79
2022/01/11 07:00:23;;;;;;;54.22;19.50;;;;;;;;;;5051513;28;20033;-81
2022/01/11 07:02:50;;;;;;;51.42;18.55;;;;;;;;;;5068330;28;20173;-79
2022/01/11 07:05:16;;;;;;;49.65;18.30;;;;;;;;;;5067691;28;20044;-81
2022/01/11 07:07:43;;;;;;;45.55;16.77;;;;;;;;;;5051908;28;20041;-81
2022/01/11 07:10:09;;;;;;;50.42;19.85;;;;;;;;;;5052001;28;20037;-81
2022/01/11 07:12:35;;;;;;;49.13;18.45;;;;;;;;;;5068145;28;20056;-81
2022/01/11 07:15:02;;;;;;;63.08;19.90;;;;;;;;;;5068469;28;20052;-81
2022/01/11 07:17:28;;;;;;;47.92;16.95;;;;;;;;;;5068156;28;20040;-81
2022/01/11 07:19:54;;;;;;;52.22;19.70;;;;;;;;;;5068508;28;20040;-81
2022/01/11 07:22:20;;;;;;;56.35;19.30;;;;;;;;;;5067722;28;20051;-81
2022/01/11 07:24:46;;;;;;;57.60;20.70;;;;;;;;;;5070610;28;20044;-81
2022/01/11 07:27:12;;;;;;;58.53;20.85;;;;;;;;;;5055765;28;20048;-80
2022/01/11 07:29:38;;;;;;;60.05;19.92;;;;;;;;;;5071882;28;20044;-80
2022/01/11 07:32:05;;;;;;;61.00;21.27;;;;;;;;;;5072353;28;20066;-81
2022/01/11 07:34:31;;;;;;;61.15;21.95;;;;;;;;;;5072818;28;20053;-81
2022/01/11 07:36:57;;;;;;;56.08;19.95;;;;;;;;;;5071648;28;20482;-81
2022/01/11 07:39:23;;;;;;;63.15;21.20;;;;;;;;;;5071328;28;20492;-79
2022/01/11 07:41:50;;;;;;;65.43;21.65;;;;;;;;;;5105431;28;20158;-79
2022/01/11 07:44:16;;;;;;;49.72;16.58;;;;;;;;;;5054790;28;20041;-79
2022/01/11 07:46:43;;;;;;;61.45;21.50;;;;;;;;;;5071525;28;20392;-80
2022/01/11 07:49:09;;;;;;;59.40;20.13;;;;;;;;;;5071930;28;20056;-81
2022/01/11 07:51:35;;;;;;;58.58;21.38;;;;;;;;;;5071627;28;20135;-81
2022/01/11 07:54:01;;;;;;;61.88;20.58;;;;;;;;;;5071998;28;20045;-79
2022/01/11 07:56:28;;;;;;;58.33;21.10;;;;;;;;;;5070361;28;20036;-79
2022/01/11 07:58:54;;;;;;;74.60;23.30;;;;;;;;;;5070922;28;20059;-79
2022/01/11 08:01:20;;;;;;;67.63;22.27;;;;;;;;;;5072072;28;20044;-79
2022/01/11 08:03:46;;;;;;;62.40;21.05;;;;;;;;;;5070878;28;20052;-79
2022/01/11 08:06:12;;;;;;;72.38;22.17;;;;;;;;;;5070852;28;20166;-79
2022/01/11 08:08:39;;;;;;;63.17;19.67;;;;;;;;;;5053973;28;20040;-79
2022/01/11 08:11:05;;;;;;;68.72;22.60;;;;;;;;;;5071192;28;20048;-79
2022/01/11 08:13:31;;;;;;;65.60;22.33;;;;;;;;;;5070130;28;20488;-79
2022/01/11 08:15:57;;;;;;;67.63;22.50;;;;;;;;;;5071055;28;20131;-81
2022/01/11 08:18:23;;;;;;;68.00;21.70;;;;;;;;;;5070777;28;20507;-79
2022/01/11 08:20:49;;;;;;;70.03;22.10;;;;;;;;;;5070862;28;20298;-79
2022/01/11 08:23:16;;;;;;;65.38;20.85;;;;;;;;;;5070544;28;20051;-80
2022/01/11 08:25:43;;;;;;;62.25;20.25;;;;;;;;;;5070864;28;20526;-79
2022/01/11 08:28:13;;;;;;;59.20;20.80;;;;;;;;;;5054080;28;20036;-79
2022/01/11 08:30:39;;;;;;;69.20;22.15;;;;;;;;;;5070727;28;20101;-79
2022/01/11 08:33:06;;;;;;;60.20;21.13;;;;;;;;;;5071554;28;20396;-79
2022/01/11 08:35:32;;;;;;;65.47;21.95;;;;;;;;;;5070297;28;20492;-80
2022/01/11 08:37:59;;;;;;;64.75;21.77;;;;;;;;;;5070535;28;20053;-79
2022/01/11 08:40:26;;;;;;;65.95;23.83;;;;;;;;;;5070408;28;20040;-79
2022/01/11 08:42:52;;;;;;;62.15;21.75;;;;;;;;;;5071221;28;20040;-79
2022/01/11 08:45:18;;;;;;;60.05;21.65;;;;;;;;;;5073022;28;20036;-80
2022/01/11 08:47:45;;;;;;;65.75;21.85;;;;;;;;;;5054356;28;20032;-79
2022/01/11 08:50:11;;;;;;;73.55;23.10;;;;;;;;;;5054047;28;20158;-80
2022/01/11 08:52:38;;;;;;;69.35;22.90;;;;;;;;;;5071584;28;20033;-79
2022/01/11 08:55:07;;;;;;;60.10;21.77;;;;;;;;;;5071106;28;20506;-81
2022/01/11 08:57:33;;;;;;;65.75;23.02;;;;;;;;;;5070543;28;20048;-81
2022/01/11 08:59:59;;;;;;;64.18;23.85;;;;;;;;;;5054695;28;20036;-81
2022/01/11 09:02:25;;;;;;;61.03;20.80;;;;;;;;;;5070224;28;20040;-79
2022/01/11 09:04:54;;;;;;;66.00;22.73;;;;;;;;;;5070339;28;20040;-79
2022/01/11 09:07:20;;;;;;;59.65;20.50;;;;;;;;;;5070178;28;20048;-80
2022/01/11 09:09:47;;;;;;;63.45;22.75;;;;;;;;;;5070981;28;20071;-79
2022/01/11 09:12:15;;;;;;;61.60;23.35;;;;;;;;;;5070124;28;20496;-79
2022/01/11 09:14:41;;;;;;;69.43;23.20;;;;;;;;;;5069967;28;20427;-79
2022/01/11 09:17:08;;;;;;;62.53;23.15;;;;;;;;;;5070897;28;20384;-81
2022/01/11 09:19:34;;;;;;;64.97;22.13;;;;;;;;;;5070666;28;20557;-81
2022/01/11 09:22:01;;;;;;;63.90;21.02;;;;;;;;;;5070424;28;20092;-81
2022/01/11 09:24:29;;;;;;;60.72;21.83;;;;;;;;;;5069769;28;20153;-81
2022/01/11 09:26:59;;;;;;;50.80;19.25;;;;;;;;;;5070382;28;20052;-81
2022/01/11 09:29:26;;;;;;;60.65;21.88;;;;;;;;;;5070331;28;20051;-81
2022/01/11 09:31:55;;;;;;;54.42;20.42;;;;;;;;;;5070574;28;20048;-80
2022/01/11 09:34:21;;;;;;;56.75;20.67;;;;;;;;;;5069140;28;20052;-79
2022/01/11 09:36:47;;;;;;;58.35;21.08;;;;;;;;;;5069767;28;20044;-79
2022/01/11 09:39:14;;;;;;;53.65;21.20;;;;;;;;;;5069093;28;20044;-80
2022/01/11 09:41:40;;;;;;;49.95;21.10;;;;;;;;;;5069248;28;20148;-80
2022/01/11 09:44:07;;;;;;;55.72;20.55;;;;;;;;;;5069698;28;20076;-79
2022/01/11 09:46:33;;;;;;;56.08;21.27;;;;;;;;;;5053582;28;20042;-80
2022/01/11 09:49:00;;;;;;;52.63;19.17;;;;;;;;;;5052717;28;20075;-80
2022/01/11 09:51:26;;;;;;;51.33;20.35;;;;;;;;;;5052665;28;20094;-82
2022/01/11 09:53:53;;;;;;;51.20;20.73;;;;;;;;;;5069670;28;20040;-81
2022/01/11 09:56:19;;;;;;;50.40;19.95;;;;;;;;;;5069841;28;20040;-81
2022/01/11 09:58:46;;;;;;;45.30;19.95;;;;;;;;;;5069849;28;20511;-80
2022/01/11 10:01:12;;;;;;;45.40;19.75;;;;;;;;;;5069766;28;20056;-81
2022/01/11 10:03:58;;;;;;;43.90;19.75;;;;;;;;;;5070718;28;20044;-80
2022/01/11 10:06:25;;;;;;;38.47;17.95;;;;;;;;;;5050117;28;20132;-81
2022/01/11 10:08:51;;;;;;;41.40;18.33;;;;;;;;;;5069639;28;20044;-80
2022/01/11 10:11:34;;;;;;;41.55;18.92;;;;;;;;;;5052530;28;20048;-80
2022/01/11 10:14:15;;;;;;;38.30;17.00;;;;;;;;;;5071168;28;20340;-81
2022/01/11 10:16:41;;;;;;;32.58;15.15;;;;;;;;;;5069483;28;20091;-80
2022/01/11 10:19:18;;;;;;;35.08;17.50;;;;;;;;;;5071294;28;20055;-80
2022/01/11 10:21:45;;;;;;;34.78;16.00;;;;;;;;;;5085834;28;20119;-80
2022/01/11 10:24:34;;;;;;;30.40;15.05;;;;;;;;;;5069434;28;20436;-80
2022/01/11 10:27:02;;;;;;;32.38;16.05;;;;;;;;;;5068785;28;20048;-80
2022/01/11 10:29:28;;;;;;;34.22;15.68;;;;;;;;;;5068414;28;20044;-80
2022/01/11 10:31:55;;;;;;;30.98;14.75;;;;;;;;;;5069017;28;20040;-79
2022/01/11 10:34:32;;;;;;;34.40;16.40;;;;;;;;;;5069173;28;20099;-80
2022/01/11 10:36:59;;;;;;;31.30;15.30;;;;;;;;;;5070303;28;20530;-80
2022/01/11 10:39:44;;;;;;;35.25;15.43;;;;;;;;;;5069922;28;20507;-80
2022/01/11 10:42:25;;;;;;;33.77;15.47;;;;;;;;;;5071015;28;20049;-79
2022/01/11 10:44:53;;;;;;;32.70;15.50;;;;;;;;;;5072281;28;20542;-80
2022/01/11 10:47:24;;;;;;;32.13;14.00;;;;;;;;;;5068214;28;20078;-81
2022/01/11 10:50:01;;;;;;;34.53;15.90;;;;;;;;;;5069862;28;20047;-79
2022/01/11 10:52:31;;;;;;;28.83;14.45;;;;;;;;;;5069006;28;20076;-80
2022/01/11 10:54:58;;;;;;;33.55;15.30;;;;;;;;;;5068587;28;20055;-80
2022/01/11 10:57:24;;;;;;;29.88;13.90;;;;;;;;;;5068868;28;20041;-80
2022/01/11 11:00:05;;;;;;;28.10;14.02;;;;;;;;;;5071690;28;20514;-79
2022/01/11 11:02:31;;;;;;;27.70;15.05;;;;;;;;;;5072883;28;20044;-80
2022/01/11 11:05:00;;;;;;;26.05;14.00;;;;;;;;;;5072931;28;20048;-80
2022/01/11 11:07:27;;;;;;;27.17;14.40;;;;;;;;;;5072135;28;20551;-80
2022/01/11 11:09:54;;;;;;;28.75;14.05;;;;;;;;;;5072522;28;20048;-79
2022/01/11 11:12:24;;;;;;;23.02;12.73;;;;;;;;;;5072524;28;20071;-80
2022/01/11 11:14:50;;;;;;;27.08;13.18;;;;;;;;;;5071953;28;20053;-80
2022/01/11 11:17:26;;;;;;;24.98;13.15;;;;;;;;;;5072229;28;20552;-79
2022/01/11 11:20:04;;;;;;;25.45;12.57;;;;;;;;;;5072300;28;20040;-80
2022/01/11 11:22:30;;;;;;;24.73;13.45;;;;;;;;;;5054740;28;20040;-80
2022/01/11 11:24:57;;;;;;;26.88;13.48;;;;;;;;;;5072508;28;20553;-80
2022/01/11 11:27:24;;;;;;;24.42;11.40;;;;;;;;;;5055440;28;20044;-78
2022/01/11 11:29:53;;;;;;;25.05;11.50;;;;;;;;;;5072427;28;20540;-80
2022/01/11 11:32:20;;;;;;;22.45;11.85;;;;;;;;;;5054876;28;20040;-79
2022/01/11 11:34:50;;;;;;;22.17;11.88;;;;;;;;;;5071652;28;20072;-79
2022/01/11 11:37:36;;;;;;;23.45;11.40;;;;;;;;;;5071558;28;20059;-78
2022/01/11 11:40:05;;;;;;;23.88;11.02;;;;;;;;;;5055303;28;20102;-78
2022/01/11 11:42:32;;;;;;;23.02;11.95;;;;;;;;;;5071559;28;20094;-78
2022/01/11 11:44:59;;;;;;;20.70;11.35;;;;;;;;;;5071893;28;20540;-78
2022/01/11 11:47:34;;;;;;;21.27;10.82;;;;;;;;;;5071326;28;20054;-79
2022/01/11 11:50:01;;;;;;;23.63;11.50;;;;;;;;;;5055874;28;20048;-79
2022/01/11 11:52:35;;;;;;;22.65;11.45;;;;;;;;;;5072165;28;20047;-79
2022/01/11 11:55:15;;;;;;;21.50;11.00;;;;;;;;;;5071560;28;20057;-80
2022/01/11 11:57:42;;;;;;;22.58;11.57;;;;;;;;;;5055192;28;20484;-79
2022/01/11 12:00:20;;;;;;;22.52;11.38;;;;;;;;;;5072564;28;20484;-79
2022/01/11 12:02:48;;;;;;;20.50;10.90;;;;;;;;;;5071523;28;20131;-79
2022/01/11 12:05:30;;;;;;;25.15;12.00;;;;;;;;;;5071589;28;20567;-79
2022/01/11 12:07:57;;;;;;;24.40;11.23;;;;;;;;;;5071713;28;20052;-79
2022/01/11 12:10:43;;;;;;;22.65;11.00;;;;;;;;;;5071662;28;20040;-79
2022/01/11 12:13:09;;;;;;;19.80;10.38;;;;;;;;;;5071477;28;20059;-80
2022/01/11 12:15:39;;;;;;;24.10;11.15;;;;;;;;;;5071011;28;20044;-79
2022/01/11 12:18:05;;;;;;;25.75;11.05;;;;;;;;;;5072908;28;20038;-79
2022/01/11 12:20:40;;;;;;;20.85;11.13;;;;;;;;;;5053946;28;20052;-79
2022/01/11 12:23:11;;;;;;;19.98;10.38;;;;;;;;;;5071320;28;20480;-79
2022/01/11 12:25:43;;;;;;;23.20;11.13;;;;;;;;;;5053978;28;20135;-79
2022/01/11 12:28:17;;;;;;;19.25;10.85;;;;;;;;;;5070857;28;20048;-80
2022/01/11 12:30:43;;;;;;;24.45;10.88;;;;;;;;;;5069883;28;20120;-80
2022/01/11 12:33:09;;;;;;;23.27;10.80;;;;;;;;;;5053630;28;20043;-80
2022/01/11 12:35:50;;;;;;;22.85;11.15;;;;;;;;;;5071630;28;20040;-80
2022/01/11 12:38:17;;;;;;;21.73;10.70;;;;;;;;;;5053208;28;20065;-79
2022/01/11 12:40:44;;;;;;;23.05;12.02;;;;;;;;;;5069895;28;20067;-80
2022/01/11 12:43:19;;;;;;;21.92;11.02;;;;;;;;;;5054014;28;20373;-79
2022/01/11 12:46:00;;;;;;;25.30;11.05;;;;;;;;;;5069761;28;20040;-80
2022/01/11 12:48:53;;;;;;;24.73;10.70;;;;;;;;;;5069472;28;20055;-79
2022/01/11 12:51:21;;;;;;;26.02;10.85;;;;;;;;;;5068161;28;20075;-80
2022/01/11 12:53:47;;;;;;;24.90;10.07;;;;;;;;;;5070061;28;20044;-81
2022/01/11 12:56:13;;;;;;;20.77;10.35;;;;;;;;;;5071639;28;20396;-80
2022/01/11 12:58:39;;;;;;;22.50;10.73;;;;;;;;;;5070078;28;20052;-80
2022/01/11 13:01:16;;;;;;;19.58;10.57;;;;;;;;;;5070359;28;20392;-81
2022/01/11 13:03:54;;;;;;;20.50;9.73;;;;;;;;;;5069897;28;20442;-80
2022/01/11 13:06:20;;;;;;;19.80;10.07;;;;;;;;;;5069779;28;20048;-79
2022/01/11 13:08:50;;;;;;;22.52;10.68;;;;;;;;;;5069136;28;20123;-79
2022/01/11 13:11:18;;;;;;;23.48;10.23;;;;;;;;;;5069658;28;20052;-79
2022/01/11 13:13:53;;;;;;;21.15;10.30;;;;;;;;;;5052935;28;20397;-79
2022/01/11 13:16:23;;;;;;;20.05;9.93;;;;;;;;;;5069351;28;20115;-79
2022/01/11 13:18:49;;;;;;;26.10;10.30;;;;;;;;;;5069863;28;20484;-79
2022/01/11 13:21:20;;;;;;;22.30;10.23;;;;;;;;;;5068498;28;20036;-79
2022/01/11 13:23:58;;;;;;;22.75;10.45;;;;;;;;;;5069121;28;20051;-81
2022/01/11 13:26:26;;;;;;;24.83;11.05;;;;;;;;;;5069972;28;20041;-79
2022/01/11 13:28:55;;;;;;;23.00;10.13;;;;;;;;;;5070237;28;20066;-79
2022/01/11 13:31:26;;;;;;;23.05;10.63;;;;;;;;;;5069022;28;20060;-80
2022/01/11 13:34:02;;;;;;;20.40;9.93;;;;;;;;;;5069110;28;20071;-79
2022/01/11 13:36:30;;;;;;;16.83;7.40;;;;;;;;;;5068517;28;20132;-79
2022/01/11 13:39:04;;;;;;;24.60;11.48;;;;;;;;;;5069075;28;20369;-79
2022/01/11 13:41:35;;;;;;;25.67;11.57;;;;;;;;;;5068561;28;20090;-79
2022/01/11 13:44:04;;;;;;;25.33;11.35;;;;;;;;;;5052352;28;20044;-79
2022/01/11 13:46:30;;;;;;;24.17;11.52;;;;;;;;;;5069305;28;20438;-79
2022/01/11 13:48:57;;;;;;;25.85;11.43;;;;;;;;;;5069806;28;20048;-78
2022/01/11 13:51:24;;;;;;;23.70;10.90;;;;;;;;;;5069455;28;20499;-79
2022/01/11 13:53:57;;;;;;;26.05;10.90;;;;;;;;;;5070482;28;20066;-79
2022/01/11 13:56:23;;;;;;;25.73;10.95;;;;;;;;;;5071000;28;20051;-81
2022/01/11 13:58:54;;;;;;;26.48;11.88;;;;;;;;;;5069786;28;20052;-81
2022/01/11 14:01:21;;;;;;;28.63;12.45;;;;;;;;;;5069640;28;20119;-81
2022/01/11 14:03:48;;;;;;;26.35;11.85;;;;;;;;;;5104489;28;20118;-79
2022/01/11 14:06:15;;;;;;;25.65;12.85;;;;;;;;;;5070030;28;20093;-81
2022/01/11 14:08:48;;;;;;;28.17;12.80;;;;;;;;;;5068984;28;20048;-81
2022/01/11 14:11:24;;;;;;;22.90;11.18;;;;;;;;;;5069963;28;20040;-81
2022/01/11 14:13:50;;;;;;;24.05;10.90;;;;;;;;;;5069233;28;20048;-81
2022/01/11 14:16:18;;;;;;;27.40;11.52;;;;;;;;;;5069672;28;20037;-81
2022/01/11 14:19:00;;;;;;;23.08;9.75;;;;;;;;;;5068715;28;20467;-81
2022/01/11 14:21:26;;;;;;;23.02;10.98;;;;;;;;;;5069247;28;20076;-81
2022/01/11 14:23:53;;;;;;;21.35;9.88;;;;;;;;;;5069600;28;20395;-79
2022/01/11 14:26:21;;;;;;;18.95;9.27;;;;;;;;;;5069585;28;20059;-79
2022/01/11 14:28:50;;;;;;;19.30;9.30;;;;;;;;;;5068667;28;20344;-79